createdAt,value
2018-03-11T00:01:02.607Z,8.46
2018-03-11T00:02:02.548Z,8.49
2018-03-11T00:03:54.309Z,8.49
2018-03-11T00:04:54.232Z,8.46
2018-03-11T00:06:45.985Z,8.50
2018-03-11T00:07:45.910Z,8.46
2018-03-11T00:09:37.667Z,8.52
2018-03-11T00:10:37.592Z,8.46
2018-03-11T00:12:29.340Z,8.42
2018-03-11T00:13:29.293Z,8.42
2018-03-11T00:15:21.035Z,8.36
2018-03-11T00:16:20.956Z,8.39
2018-03-11T00:18:12.704Z,8.36
2018-03-11T00:19:12.640Z,8.31
2018-03-11T00:21:04.412Z,8.39
2018-03-11T00:22:04.333Z,8.34
2018-03-11T00:23:56.131Z,8.27
2018-03-11T00:24:56.052Z,8.25
2018-03-11T00:26:47.820Z,8.21
2018-03-11T00:27:47.759Z,8.22
2018-03-11T00:29:39.515Z,8.18
2018-03-11T00:30:39.442Z,8.18
2018-03-11T00:32:31.238Z,8.17
2018-03-11T00:33:31.176Z,8.13
2018-03-11T00:35:22.995Z,8.14
2018-03-11T00:36:22.927Z,8.07
2018-03-11T00:38:14.682Z,7.96
2018-03-11T00:39:14.633Z,8.13
2018-03-11T00:41:06.423Z,8.00
2018-03-11T00:42:06.344Z,8.07
2018-03-11T00:43:58.198Z,8.03
2018-03-11T00:44:58.131Z,7.96
2018-03-11T00:46:49.933Z,7.99
2018-03-11T00:47:49.857Z,8.03
2018-03-11T00:49:41.650Z,7.99
2018-03-11T00:50:41.569Z,8.00
2018-03-11T00:52:33.342Z,8.00
2018-03-11T00:53:33.253Z,7.95
2018-03-11T00:55:25.004Z,7.88
2018-03-11T00:56:24.961Z,7.91
2018-03-11T00:58:16.714Z,7.88
2018-03-11T00:59:16.640Z,7.79
2018-03-11T01:01:08.463Z,7.84
2018-03-11T01:02:08.385Z,7.77
2018-03-11T01:04:00.167Z,7.73
2018-03-11T01:05:00.102Z,7.69
2018-03-11T01:06:51.915Z,7.66
2018-03-11T01:07:51.834Z,7.62
2018-03-11T01:09:43.596Z,7.57
2018-03-11T01:10:43.534Z,7.57
2018-03-11T01:12:35.288Z,7.66
2018-03-11T01:13:35.213Z,7.57
2018-03-11T01:15:26.973Z,7.48
2018-03-11T01:16:26.902Z,7.48
2018-03-11T01:18:18.657Z,7.47
2018-03-11T01:19:18.585Z,7.44
2018-03-11T01:21:10.319Z,7.42
2018-03-11T01:22:10.261Z,7.45
2018-03-11T01:24:02.039Z,7.44
2018-03-11T01:25:01.991Z,7.41
2018-03-11T01:26:53.716Z,7.41
2018-03-11T01:27:53.647Z,7.44
2018-03-11T01:29:45.409Z,7.54
2018-03-11T01:30:45.332Z,7.48
2018-03-11T01:32:37.129Z,7.51
2018-03-11T01:33:37.056Z,7.57
2018-03-11T01:35:28.816Z,7.45
2018-03-11T01:36:28.741Z,7.60
2018-03-11T01:38:20.505Z,7.50
2018-03-11T01:39:20.432Z,7.45
2018-03-11T01:41:12.241Z,7.42
2018-03-11T01:42:12.116Z,7.42
2018-03-11T01:44:03.873Z,7.47
2018-03-11T01:45:03.794Z,7.42
2018-03-11T01:46:55.554Z,7.41
2018-03-11T01:47:55.489Z,7.41
2018-03-11T01:49:47.295Z,7.50
2018-03-11T01:50:47.215Z,7.55
2018-03-11T01:52:38.967Z,7.52
2018-03-11T01:53:38.891Z,7.57
2018-03-11T01:55:30.668Z,7.51
2018-03-11T01:56:30.590Z,7.60
2018-03-11T01:58:22.383Z,7.69
2018-03-11T01:59:22.298Z,7.66
2018-03-11T02:01:14.034Z,7.55
2018-03-11T02:02:13.967Z,7.66
2018-03-11T02:04:05.755Z,7.60
2018-03-11T02:05:05.671Z,7.58
2018-03-11T02:06:57.428Z,7.70
2018-03-11T02:07:57.362Z,7.67
2018-03-11T02:09:49.120Z,7.58
2018-03-11T02:10:49.049Z,7.67
2018-03-11T02:12:40.787Z,7.62
2018-03-11T02:13:40.723Z,7.66
2018-03-11T02:15:32.498Z,7.62
2018-03-11T02:16:32.411Z,7.71
2018-03-11T02:18:24.206Z,7.67
2018-03-11T02:19:24.137Z,7.63
2018-03-11T02:21:15.903Z,7.67
2018-03-11T02:22:15.817Z,7.62
2018-03-11T02:24:07.567Z,7.55
2018-03-11T02:25:07.500Z,7.42
2018-03-11T02:26:59.267Z,7.45
2018-03-11T02:27:59.184Z,7.45
2018-03-11T02:29:50.954Z,7.30
2018-03-11T02:30:50.885Z,7.29
2018-03-11T02:32:42.677Z,7.27
2018-03-11T02:33:42.557Z,7.29
2018-03-11T02:35:34.428Z,7.19
2018-03-11T02:36:34.322Z,7.23
2018-03-11T02:38:26.076Z,7.23
2018-03-11T02:39:26.008Z,7.19
2018-03-11T02:41:17.812Z,7.15
2018-03-11T02:42:17.732Z,7.18
2018-03-11T02:44:09.477Z,7.05
2018-03-11T02:45:09.407Z,7.12
2018-03-11T02:47:01.212Z,7.01
2018-03-11T02:48:01.095Z,6.89
2018-03-11T02:49:52.858Z,6.93
2018-03-11T02:50:52.795Z,6.91
2018-03-11T02:52:44.565Z,6.81
2018-03-11T02:53:44.485Z,6.64
2018-03-11T02:55:36.220Z,6.76
2018-03-11T02:58:27.913Z,6.69
2018-03-11T02:59:27.833Z,6.75
2018-03-11T03:01:19.619Z,6.78
2018-03-11T03:02:19.507Z,6.81
2018-03-11T03:04:11.315Z,6.69
2018-03-11T03:05:11.249Z,6.79
2018-03-11T03:07:03.000Z,6.75
2018-03-11T03:08:02.926Z,6.65
2018-03-11T03:09:54.674Z,6.63
2018-03-11T03:10:54.613Z,6.68
2018-03-11T03:12:46.516Z,6.64
2018-03-11T03:13:46.407Z,6.60
2018-03-11T03:15:38.132Z,6.58
2018-03-11T03:16:38.068Z,6.63
2018-03-11T03:18:29.828Z,6.51
2018-03-11T03:19:29.748Z,6.51
2018-03-11T03:21:21.503Z,6.48
2018-03-11T03:22:21.435Z,6.53
2018-03-11T03:24:13.195Z,6.53
2018-03-11T03:25:13.121Z,6.48
2018-03-11T03:27:04.882Z,6.42
2018-03-11T03:28:04.818Z,6.42
2018-03-11T03:29:56.563Z,6.35
2018-03-11T03:30:56.502Z,6.35
2018-03-11T03:32:48.285Z,6.24
2018-03-11T03:33:48.216Z,6.21
2018-03-11T03:35:39.978Z,6.16
2018-03-11T03:36:39.967Z,6.13
2018-03-11T03:38:31.686Z,6.14
2018-03-11T03:39:31.605Z,6.06
2018-03-11T03:41:23.413Z,6.10
2018-03-11T03:42:23.316Z,6.24
2018-03-11T03:44:15.079Z,6.24
2018-03-11T03:45:15.007Z,6.19
2018-03-11T03:47:06.845Z,6.10
2018-03-11T03:48:06.780Z,6.14
2018-03-11T03:49:58.631Z,6.14
2018-03-11T03:50:58.562Z,6.10
2018-03-11T03:52:50.324Z,6.11
2018-03-11T03:53:50.228Z,6.08
2018-03-11T03:55:41.979Z,6.14
2018-03-11T03:56:41.902Z,6.19
2018-03-11T03:58:33.674Z,6.21
2018-03-11T03:59:33.603Z,6.32
2018-03-11T04:01:25.371Z,6.39
2018-03-11T04:02:25.288Z,6.42
2018-03-11T04:04:17.037Z,6.61
2018-03-11T04:05:16.982Z,6.57
2018-03-11T04:07:08.723Z,6.61
2018-03-11T04:08:08.648Z,6.65
2018-03-11T04:10:00.538Z,6.75
2018-03-11T04:11:00.461Z,6.72
2018-03-11T04:12:52.243Z,6.72
2018-03-11T04:13:52.188Z,6.63
2018-03-11T04:15:43.951Z,6.81
2018-03-11T04:16:43.874Z,6.71
2018-03-11T04:18:35.599Z,6.76
2018-03-11T04:19:35.533Z,6.64
2018-03-11T04:21:27.298Z,6.63
2018-03-11T04:22:27.211Z,6.68
2018-03-11T04:24:18.957Z,6.69
2018-03-11T04:25:18.899Z,6.73
2018-03-11T04:27:10.671Z,6.64
2018-03-11T04:28:10.592Z,6.71
2018-03-11T04:30:02.397Z,6.75
2018-03-11T04:31:02.329Z,6.82
2018-03-11T04:32:54.083Z,6.65
2018-03-11T04:33:54.010Z,6.75
2018-03-11T04:35:45.820Z,6.82
2018-03-11T04:36:45.699Z,6.82
2018-03-11T04:38:37.484Z,6.71
2018-03-11T04:39:37.404Z,6.78
2018-03-11T04:41:29.256Z,6.81
2018-03-11T04:42:29.141Z,6.75
2018-03-11T04:44:20.874Z,6.75
2018-03-11T04:45:20.897Z,6.72
2018-03-11T04:47:12.543Z,6.68
2018-03-11T04:48:12.485Z,6.76
2018-03-11T04:50:04.204Z,6.68
2018-03-11T04:51:04.134Z,6.64
2018-03-11T04:52:56.045Z,6.72
2018-03-11T04:53:55.951Z,6.60
2018-03-11T04:55:47.810Z,6.63
2018-03-11T04:56:47.742Z,6.57
2018-03-11T04:58:39.503Z,6.61
2018-03-11T04:59:39.427Z,6.61
2018-03-11T05:01:31.309Z,6.53
2018-03-11T05:02:31.106Z,6.50
2018-03-11T05:04:22.899Z,6.48
2018-03-11T05:05:22.812Z,6.53
2018-03-11T05:07:14.552Z,6.55
2018-03-11T05:08:14.488Z,6.46
2018-03-11T05:10:06.290Z,6.60
2018-03-11T05:11:06.208Z,6.61
2018-03-11T05:12:57.971Z,6.57
2018-03-11T05:13:57.912Z,6.50
2018-03-11T05:15:49.661Z,6.42
2018-03-11T05:16:49.611Z,6.53
2018-03-11T05:18:41.325Z,6.39
2018-03-11T05:19:41.299Z,6.42
2018-03-11T05:21:33.057Z,6.36
2018-03-11T05:22:32.980Z,6.39
2018-03-11T05:24:24.888Z,6.42
2018-03-11T05:25:24.727Z,6.42
2018-03-11T05:27:16.449Z,6.46
2018-03-11T05:28:16.389Z,6.39
2018-03-11T05:30:08.292Z,6.38
2018-03-11T05:31:08.073Z,6.32
2018-03-11T05:32:59.857Z,6.33
2018-03-11T05:33:59.768Z,6.38
2018-03-11T05:35:51.574Z,6.35
2018-03-11T05:36:51.494Z,6.24
2018-03-11T05:38:43.235Z,6.36
2018-03-11T05:39:43.168Z,6.39
2018-03-11T05:41:35.017Z,6.36
2018-03-11T05:42:34.894Z,6.35
2018-03-11T05:44:26.659Z,6.43
2018-03-11T05:45:26.577Z,6.51
2018-03-11T05:47:18.395Z,6.46
2018-03-11T05:48:18.323Z,6.48
2018-03-11T05:50:10.072Z,6.33
2018-03-11T05:51:10.010Z,6.39
2018-03-11T05:53:01.763Z,6.42
2018-03-11T05:54:01.684Z,6.38
2018-03-11T05:55:53.429Z,6.48
2018-03-11T05:56:53.359Z,6.51
2018-03-11T05:58:45.138Z,6.57
2018-03-11T05:59:45.045Z,6.60
2018-03-11T06:01:36.771Z,6.81
2018-03-11T06:02:36.738Z,6.79
2018-03-11T06:04:28.460Z,7.04
2018-03-11T06:05:28.382Z,7.16
2018-03-11T06:07:20.123Z,7.39
2018-03-11T06:08:20.059Z,7.30
2018-03-11T06:10:11.955Z,7.47
2018-03-11T06:11:11.743Z,7.44
2018-03-11T06:13:03.512Z,7.66
2018-03-11T06:14:03.438Z,7.89
2018-03-11T06:15:55.227Z,7.96
2018-03-11T06:16:55.206Z,8.02
2018-03-11T06:18:46.938Z,8.03
2018-03-11T06:19:46.863Z,8.12
2018-03-11T06:21:38.629Z,8.03
2018-03-11T06:22:38.568Z,7.95
2018-03-11T06:24:30.363Z,7.84
2018-03-11T06:25:30.280Z,7.77
2018-03-11T06:27:22.028Z,7.66
2018-03-11T06:28:21.967Z,7.71
2018-03-11T06:30:13.718Z,7.77
2018-03-11T06:31:13.692Z,7.88
2018-03-11T06:33:05.413Z,7.99
2018-03-11T06:34:05.339Z,8.00
2018-03-11T06:35:57.109Z,8.02
2018-03-11T06:36:57.040Z,7.96
2018-03-11T06:38:48.860Z,8.12
2018-03-11T06:39:48.816Z,8.14
2018-03-11T06:41:40.761Z,8.04
2018-03-11T06:42:40.658Z,8.20
2018-03-11T06:44:32.564Z,8.13
2018-03-11T06:45:32.363Z,8.28
2018-03-11T06:47:24.110Z,8.29
2018-03-11T06:48:24.033Z,8.42
2018-03-11T06:50:15.847Z,8.79
2018-03-11T06:51:15.769Z,8.88
2018-03-11T06:53:07.571Z,9.38
2018-03-11T06:54:07.501Z,9.59
2018-03-11T06:55:59.423Z,10.01
2018-03-11T06:56:59.371Z,10.46
2018-03-11T06:58:51.137Z,10.98
2018-03-11T06:59:51.050Z,11.20
2018-03-11T07:01:42.820Z,11.19
2018-03-11T07:02:42.772Z,11.33
2018-03-11T07:04:34.524Z,11.74
2018-03-11T07:05:34.452Z,11.82
2018-03-11T07:07:26.218Z,12.26
2018-03-11T07:08:26.153Z,12.26
2018-03-11T07:10:17.906Z,12.37
2018-03-11T07:11:17.848Z,12.55
2018-03-11T07:13:09.621Z,12.34
2018-03-11T07:14:09.594Z,12.11
2018-03-11T07:16:01.342Z,12.03
2018-03-11T07:17:01.287Z,11.90
2018-03-11T07:18:53.222Z,12.00
2018-03-11T07:19:53.198Z,12.13
2018-03-11T07:21:44.930Z,12.26
2018-03-11T07:22:44.859Z,12.31
2018-03-11T07:24:36.667Z,12.37
2018-03-11T07:25:36.609Z,12.48
2018-03-11T07:27:28.420Z,12.51
2018-03-11T07:28:28.354Z,12.67
2018-03-11T07:30:20.277Z,12.22
2018-03-11T07:31:20.213Z,12.34
2018-03-11T07:33:11.991Z,12.38
2018-03-11T07:34:11.981Z,12.30
2018-03-11T07:36:03.737Z,12.37
2018-03-11T07:37:03.651Z,12.19
2018-03-11T07:38:55.446Z,12.26
2018-03-11T07:39:55.375Z,11.98
2018-03-11T07:41:47.152Z,11.88
2018-03-11T07:42:47.095Z,11.93
2018-03-11T07:44:38.896Z,12.08
2018-03-11T07:45:38.830Z,12.07
2018-03-11T07:47:30.630Z,12.15
2018-03-11T07:48:30.570Z,12.21
2018-03-11T07:50:22.347Z,12.44
2018-03-11T07:51:22.279Z,12.52
2018-03-11T07:53:14.062Z,12.70
2018-03-11T07:54:14.005Z,12.91
2018-03-11T07:56:05.859Z,13.46
2018-03-11T07:57:05.786Z,13.83
2018-03-11T07:58:57.564Z,14.16
2018-03-11T07:59:57.524Z,13.87
2018-03-11T08:01:49.302Z,14.21
2018-03-11T08:02:49.232Z,14.75
2018-03-11T08:04:41.187Z,15.55
2018-03-11T08:05:41.117Z,16.22
2018-03-11T08:07:32.934Z,16.69
2018-03-11T08:08:32.899Z,17.12
2018-03-11T08:10:24.829Z,17.68
2018-03-11T08:11:24.594Z,17.86
2018-03-11T08:13:17.405Z,17.81
2018-03-11T08:14:17.332Z,17.70
2018-03-11T08:16:09.153Z,17.58
2018-03-11T08:17:09.070Z,17.99
2018-03-11T08:19:00.920Z,18.49
2018-03-11T08:20:00.873Z,18.65
2018-03-11T08:21:52.707Z,18.71
2018-03-11T08:22:52.643Z,18.91
2018-03-11T08:24:44.439Z,18.62
2018-03-11T08:25:44.389Z,18.35
2018-03-11T08:27:36.212Z,17.92
2018-03-11T08:28:36.148Z,17.73
2018-03-11T08:30:27.925Z,17.71
2018-03-11T08:31:27.876Z,17.47
2018-03-11T08:33:19.698Z,17.21
2018-03-11T08:34:19.637Z,17.21
2018-03-11T08:36:11.440Z,17.09
2018-03-11T08:37:11.387Z,17.25
2018-03-11T08:39:03.214Z,17.05
2018-03-11T08:40:03.155Z,17.12
2018-03-11T08:41:55.026Z,17.35
2018-03-11T08:42:55.073Z,17.35
2018-03-11T08:44:47.019Z,17.60
2018-03-11T08:45:47.049Z,17.77
2018-03-11T08:47:38.799Z,17.47
2018-03-11T08:48:38.751Z,17.51
2018-03-11T08:50:30.630Z,17.51
2018-03-11T08:51:30.566Z,17.57
2018-03-11T08:53:22.490Z,17.79
2018-03-11T08:54:22.301Z,17.89
2018-03-11T08:56:14.072Z,17.77
2018-03-11T08:57:14.028Z,17.49
2018-03-11T08:59:05.880Z,17.55
2018-03-11T09:00:05.763Z,17.76
2018-03-11T09:01:57.682Z,17.91
2018-03-11T09:02:57.628Z,17.84
2018-03-11T09:04:49.425Z,18.02
2018-03-11T09:05:49.367Z,18.09
2018-03-11T09:07:41.133Z,17.94
2018-03-11T09:08:41.087Z,18.09
2018-03-11T09:10:32.966Z,18.16
2018-03-11T09:11:32.836Z,18.16
2018-03-11T09:13:24.623Z,18.44
2018-03-11T09:14:24.646Z,18.69
2018-03-11T09:16:16.511Z,18.64
2018-03-11T09:17:16.454Z,18.54
2018-03-11T09:19:08.904Z,18.57
2018-03-11T09:20:08.265Z,18.28
2018-03-11T09:22:00.180Z,18.41
2018-03-11T09:23:00.132Z,18.23
2018-03-11T09:24:52.127Z,18.41
2018-03-11T09:25:52.077Z,18.44
2018-03-11T09:27:45.135Z,18.56
2018-03-11T09:28:44.264Z,18.79
2018-03-11T09:30:37.168Z,18.64
2018-03-11T09:31:37.068Z,18.68
2018-03-11T09:33:28.843Z,18.60
2018-03-11T09:34:28.813Z,18.91
2018-03-11T09:36:20.879Z,19.23
2018-03-11T09:37:20.800Z,19.12
2018-03-11T09:39:12.912Z,18.74
2018-03-11T09:40:12.836Z,18.51
2018-03-11T09:42:06.222Z,18.65
2018-03-11T09:43:05.526Z,18.68
2018-03-11T09:44:57.670Z,19.09
2018-03-11T09:45:57.661Z,19.21
2018-03-11T09:47:49.928Z,18.51
2018-03-11T09:48:49.150Z,18.64
2018-03-11T09:50:41.068Z,18.76
2018-03-11T09:51:41.044Z,18.89
2018-03-11T09:53:32.999Z,19.01
2018-03-11T09:54:32.728Z,19.09
2018-03-11T09:56:26.612Z,18.76
2018-03-11T09:57:24.671Z,18.79
2018-03-11T09:59:16.539Z,18.36
2018-03-11T10:00:16.398Z,18.44
2018-03-11T10:02:08.467Z,18.60
2018-03-11T10:03:08.256Z,18.72
2018-03-11T10:05:00.004Z,18.53
2018-03-11T10:05:59.957Z,18.64
2018-03-11T10:07:52.608Z,18.44
2018-03-11T10:08:51.834Z,18.29
2018-03-11T10:10:43.762Z,18.28
2018-03-11T10:11:43.735Z,18.41
2018-03-11T10:13:36.140Z,18.41
2018-03-11T10:14:35.672Z,18.38
2018-03-11T10:16:28.650Z,18.39
2018-03-11T10:17:28.581Z,18.34
2018-03-11T10:19:20.425Z,18.29
2018-03-11T10:20:20.351Z,18.20
2018-03-11T10:22:12.230Z,18.13
2018-03-11T10:23:12.174Z,18.17
2018-03-11T10:25:04.147Z,18.19
2018-03-11T10:26:04.091Z,18.10
2018-03-11T10:27:55.941Z,18.35
2018-03-11T10:28:55.832Z,18.47
2018-03-11T10:30:47.910Z,18.46
2018-03-11T10:31:47.782Z,18.34
2018-03-11T10:33:39.658Z,18.09
2018-03-11T10:34:39.576Z,18.10
2018-03-11T10:36:31.672Z,17.94
2018-03-11T10:37:31.501Z,17.81
2018-03-11T10:39:23.401Z,17.73
2018-03-11T10:40:23.728Z,17.63
2018-03-11T10:42:15.108Z,18.02
2018-03-11T10:43:15.096Z,18.09
2018-03-11T10:45:07.064Z,18.19
2018-03-11T10:46:07.000Z,18.23
2018-03-11T10:47:58.992Z,18.32
2018-03-11T10:48:58.944Z,18.25
2018-03-11T10:50:50.792Z,18.23
2018-03-11T10:51:50.851Z,18.20
2018-03-11T10:53:42.629Z,18.31
2018-03-11T10:54:42.574Z,18.38
2018-03-11T10:56:34.560Z,18.02
2018-03-11T10:57:34.378Z,17.68
2018-03-11T10:59:27.268Z,17.58
2018-03-11T11:00:27.200Z,17.77
2018-03-11T11:02:19.194Z,18.04
2018-03-11T11:03:19.159Z,18.19
2018-03-11T11:05:11.039Z,18.28
2018-03-11T11:06:11.031Z,18.21
2018-03-11T11:08:02.886Z,18.32
2018-03-11T11:09:02.874Z,18.21
2018-03-11T11:10:54.793Z,18.49
2018-03-11T11:11:54.572Z,18.66
2018-03-11T11:13:46.360Z,18.57
2018-03-11T11:14:46.415Z,18.68
2018-03-11T11:16:38.132Z,18.94
2018-03-11T11:17:38.053Z,18.82
2018-03-11T11:19:29.975Z,18.91
2018-03-11T11:20:29.787Z,18.38
2018-03-11T11:22:22.784Z,17.66
2018-03-11T11:23:22.786Z,17.58
2018-03-11T11:25:14.662Z,17.79
2018-03-11T11:26:14.597Z,17.71
2018-03-11T11:28:06.447Z,17.79
2018-03-11T11:29:06.396Z,17.62
2018-03-11T11:30:58.292Z,17.53
2018-03-11T11:31:58.513Z,17.35
2018-03-11T11:33:51.078Z,17.05
2018-03-11T11:34:50.965Z,17.21
2018-03-11T11:36:43.865Z,17.17
2018-03-11T11:37:43.689Z,17.15
2018-03-11T11:39:35.545Z,17.00
2018-03-11T11:40:35.537Z,16.91
2018-03-11T11:42:28.325Z,16.98
2018-03-11T11:43:28.241Z,17.00
2018-03-11T11:45:21.038Z,16.98
2018-03-11T11:46:20.982Z,17.00
2018-03-11T11:48:13.377Z,16.84
2018-03-11T11:49:12.773Z,16.87
2018-03-11T11:51:04.617Z,16.75
2018-03-11T11:52:04.566Z,16.80
2018-03-11T11:53:57.386Z,16.81
2018-03-11T11:54:57.309Z,16.77
2018-03-11T11:56:49.150Z,16.75
2018-03-11T11:57:49.057Z,16.73
2018-03-11T11:59:40.880Z,16.51
2018-03-11T12:00:40.861Z,16.44
2018-03-11T12:02:33.741Z,16.42
2018-03-11T12:03:33.674Z,16.37
2018-03-11T12:05:25.590Z,16.37
2018-03-11T12:06:25.583Z,16.33
2018-03-11T12:08:17.375Z,16.23
2018-03-11T12:09:17.238Z,16.17
2018-03-11T12:11:09.148Z,16.01
2018-03-11T12:12:09.048Z,16.04
2018-03-11T12:14:00.802Z,16.44
2018-03-11T12:15:00.749Z,16.72
2018-03-11T12:16:52.561Z,16.91
2018-03-11T12:17:52.578Z,16.88
2018-03-11T12:19:44.661Z,16.66
2018-03-11T12:20:44.496Z,16.59
2018-03-11T12:22:36.623Z,16.47
2018-03-11T12:23:36.442Z,16.50
2018-03-11T12:25:28.383Z,16.44
2018-03-11T12:26:28.331Z,16.42
2018-03-11T12:28:20.124Z,16.17
2018-03-11T12:29:20.067Z,16.13
2018-03-11T12:31:12.005Z,16.11
2018-03-11T12:32:11.846Z,16.22
2018-03-11T12:34:04.714Z,16.07
2018-03-11T12:35:04.653Z,15.93
2018-03-11T12:36:57.143Z,15.89
2018-03-11T12:37:56.434Z,15.92
2018-03-11T12:39:48.279Z,15.91
2018-03-11T12:40:48.208Z,15.89
2018-03-11T12:42:40.037Z,16.03
2018-03-11T12:43:40.181Z,16.17
2018-03-11T12:45:31.941Z,16.30
2018-03-11T12:46:31.730Z,16.27
2018-03-11T12:48:23.650Z,16.30
2018-03-11T12:49:23.464Z,16.33
2018-03-11T12:51:16.234Z,16.42
2018-03-11T12:52:16.164Z,16.48
2018-03-11T12:54:07.929Z,16.44
2018-03-11T12:55:07.869Z,16.34
2018-03-11T12:56:59.631Z,15.98
2018-03-11T12:57:59.595Z,15.89
2018-03-11T12:59:51.407Z,16.10
2018-03-11T13:00:51.337Z,16.25
2018-03-11T13:02:43.125Z,16.32
2018-03-11T13:03:43.081Z,16.40
2018-03-11T13:05:35.036Z,16.47
2018-03-11T13:06:34.773Z,16.32
2018-03-11T13:08:26.547Z,16.27
2018-03-11T13:09:26.494Z,16.26
2018-03-11T13:11:18.423Z,16.30
2018-03-11T13:12:18.397Z,16.33
2018-03-11T13:14:11.221Z,16.29
2018-03-11T13:15:11.092Z,16.40
2018-03-11T13:17:02.909Z,16.42
2018-03-11T13:18:02.824Z,16.50
2018-03-11T13:19:54.686Z,16.45
2018-03-11T13:20:54.620Z,16.48
2018-03-11T13:22:46.497Z,16.48
2018-03-11T13:23:46.423Z,16.32
2018-03-11T13:25:39.268Z,16.16
2018-03-11T13:26:39.218Z,16.25
2018-03-11T13:28:31.139Z,16.40
2018-03-11T13:29:31.076Z,16.42
2018-03-11T13:31:22.878Z,16.57
2018-03-11T13:32:22.798Z,16.66
2018-03-11T13:34:15.641Z,16.78
2018-03-11T13:35:15.519Z,16.87
2018-03-11T13:37:07.313Z,16.69
2018-03-11T13:38:07.232Z,16.67
2018-03-11T13:39:59.122Z,16.44
2018-03-11T13:40:59.093Z,16.48
2018-03-11T13:42:50.865Z,16.45
2018-03-11T13:43:50.769Z,16.51
2018-03-11T13:45:42.582Z,16.62
2018-03-11T13:46:42.498Z,16.54
2018-03-11T13:48:34.321Z,16.50
2018-03-11T13:49:34.214Z,16.44
2018-03-11T13:51:25.978Z,16.45
2018-03-11T13:52:25.929Z,16.44
2018-03-11T13:54:17.761Z,16.41
2018-03-11T13:55:17.701Z,16.40
2018-03-11T13:57:09.448Z,16.42
2018-03-11T13:58:09.384Z,16.59
2018-03-11T14:00:01.185Z,16.60
2018-03-11T14:01:01.109Z,16.65
2018-03-11T14:02:52.889Z,16.62
2018-03-11T14:03:52.846Z,16.78
2018-03-11T14:05:44.583Z,16.78
2018-03-11T14:06:44.533Z,16.82
2018-03-11T14:08:36.573Z,17.02
2018-03-11T14:09:36.430Z,16.98
2018-03-11T14:11:28.148Z,16.91
2018-03-11T14:12:28.049Z,17.03
2018-03-11T14:14:19.965Z,17.05
2018-03-11T14:15:19.876Z,17.00
2018-03-11T14:17:11.836Z,17.06
2018-03-11T14:18:11.781Z,17.07
2018-03-11T14:20:03.730Z,17.24
2018-03-11T14:21:03.615Z,17.17
2018-03-11T14:22:55.477Z,17.21
2018-03-11T14:23:55.411Z,17.05
2018-03-11T14:25:47.268Z,17.15
2018-03-11T14:26:47.190Z,16.99
2018-03-11T14:28:39.177Z,17.14
2018-03-11T14:29:39.048Z,17.12
2018-03-11T14:31:30.888Z,17.22
2018-03-11T14:32:30.817Z,17.14
2018-03-11T14:34:22.597Z,17.12
2018-03-11T14:35:22.501Z,17.09
2018-03-11T14:37:14.394Z,16.99
2018-03-11T14:38:14.251Z,17.07
2018-03-11T14:40:06.029Z,16.95
2018-03-11T14:41:05.993Z,17.00
2018-03-11T14:42:57.845Z,17.03
2018-03-11T14:43:57.721Z,16.98
2018-03-11T14:45:49.639Z,17.03
2018-03-11T14:46:49.586Z,16.95
2018-03-11T14:48:41.368Z,16.91
2018-03-11T14:49:41.283Z,16.95
2018-03-11T14:51:33.332Z,16.91
2018-03-11T14:52:33.168Z,16.99
2018-03-11T14:54:25.030Z,16.91
2018-03-11T14:55:24.967Z,16.85
2018-03-11T14:57:16.743Z,16.87
2018-03-11T14:58:16.660Z,16.95
2018-03-11T15:00:08.465Z,16.87
2018-03-11T15:01:08.400Z,16.87
2018-03-11T15:03:00.210Z,16.88
2018-03-11T15:04:00.094Z,16.90
2018-03-11T15:05:51.908Z,16.87
2018-03-11T15:06:51.849Z,16.87
2018-03-11T15:08:43.761Z,16.75
2018-03-11T15:09:43.593Z,16.81
2018-03-11T15:11:35.464Z,16.77
2018-03-11T15:12:35.412Z,16.69
2018-03-11T15:14:27.230Z,16.67
2018-03-11T15:15:27.183Z,16.77
2018-03-11T15:17:18.998Z,16.70
2018-03-11T15:18:18.880Z,16.65
2018-03-11T15:20:10.680Z,16.66
2018-03-11T15:21:10.594Z,16.65
2018-03-11T15:23:02.389Z,16.80
2018-03-11T15:24:02.306Z,16.67
2018-03-11T15:25:54.093Z,16.77
2018-03-11T15:26:54.004Z,16.73
2018-03-11T15:28:45.914Z,16.70
2018-03-11T15:29:45.874Z,16.72
2018-03-11T15:31:37.697Z,16.66
2018-03-11T15:32:37.603Z,16.67
2018-03-11T15:34:29.406Z,16.55
2018-03-11T15:35:29.317Z,16.47
2018-03-11T15:37:21.408Z,16.51
2018-03-11T15:38:21.309Z,16.44
2018-03-11T15:40:13.289Z,16.52
2018-03-11T15:41:13.198Z,16.42
2018-03-11T15:43:04.991Z,16.42
2018-03-11T15:44:04.909Z,16.51
2018-03-11T15:45:56.705Z,16.48
2018-03-11T15:46:56.632Z,16.45
2018-03-11T15:48:48.576Z,16.32
2018-03-11T15:49:48.475Z,16.32
2018-03-11T15:51:40.388Z,16.33
2018-03-11T15:52:40.207Z,16.29
2018-03-11T15:54:33.095Z,16.23
2018-03-11T15:55:32.984Z,16.22
2018-03-11T15:57:24.807Z,16.14
2018-03-11T15:58:24.696Z,16.16
2018-03-11T16:00:16.547Z,16.06
2018-03-11T16:01:16.405Z,16.07
2018-03-11T16:03:08.216Z,15.99
2018-03-11T16:04:08.134Z,15.99
2018-03-11T16:05:59.917Z,16.08
2018-03-11T16:06:59.846Z,15.88
2018-03-11T16:08:51.638Z,15.96
2018-03-11T16:09:51.584Z,15.93
2018-03-11T16:11:43.377Z,15.92
2018-03-11T16:12:43.281Z,15.88
2018-03-11T16:14:35.056Z,15.85
2018-03-11T16:15:35.178Z,15.86
2018-03-11T16:17:26.797Z,15.88
2018-03-11T16:18:26.721Z,15.84
2018-03-11T16:20:18.546Z,15.74
2018-03-11T16:21:18.483Z,15.76
2018-03-11T16:23:10.351Z,15.78
2018-03-11T16:24:10.238Z,15.73
2018-03-11T16:26:02.020Z,15.73
2018-03-11T16:27:02.148Z,15.68
2018-03-11T16:28:53.778Z,15.66
2018-03-11T16:29:53.753Z,15.73
2018-03-11T16:31:45.610Z,15.64
2018-03-11T16:32:45.500Z,15.56
2018-03-11T16:34:37.281Z,15.48
2018-03-11T16:35:37.219Z,15.41
2018-03-11T16:37:29.041Z,15.52
2018-03-11T16:38:28.990Z,15.44
2018-03-11T16:40:20.802Z,15.41
2018-03-11T16:41:20.721Z,15.46
2018-03-11T16:43:12.510Z,15.44
2018-03-11T16:44:12.455Z,15.40
2018-03-11T16:46:04.370Z,15.30
2018-03-11T16:47:04.385Z,15.16
2018-03-11T16:48:56.721Z,15.01
2018-03-11T16:49:56.148Z,15.03
2018-03-11T16:51:47.969Z,14.90
2018-03-11T16:52:47.883Z,14.82
2018-03-11T16:54:39.689Z,14.90
2018-03-11T16:55:39.615Z,14.86
2018-03-11T16:57:31.431Z,14.82
2018-03-11T16:58:31.283Z,14.71
2018-03-11T17:00:23.133Z,14.75
2018-03-11T17:01:23.054Z,14.79
2018-03-11T17:03:14.967Z,14.75
2018-03-11T17:04:14.891Z,14.78
2018-03-11T17:06:06.713Z,14.72
2018-03-11T17:07:06.682Z,14.72
2018-03-11T17:08:58.442Z,14.74
2018-03-11T17:09:58.495Z,14.71
2018-03-11T17:11:50.121Z,14.60
2018-03-11T17:12:50.107Z,14.56
2018-03-11T17:14:41.812Z,14.57
2018-03-11T17:15:41.766Z,14.54
2018-03-11T17:17:33.588Z,14.56
2018-03-11T17:18:33.459Z,14.60
2018-03-11T17:20:25.412Z,14.59
2018-03-11T17:21:25.281Z,14.60
2018-03-11T17:23:17.072Z,14.56
2018-03-11T17:24:17.000Z,14.54
2018-03-11T17:26:09.778Z,14.44
2018-03-11T17:27:09.700Z,14.54
2018-03-11T17:29:01.460Z,14.45
2018-03-11T17:30:01.401Z,14.44
2018-03-11T17:31:53.182Z,14.29
2018-03-11T17:32:53.125Z,14.41
2018-03-11T17:34:44.865Z,14.23
2018-03-11T17:35:44.797Z,14.20
2018-03-11T17:37:36.585Z,14.16
2018-03-11T17:38:36.510Z,14.13
2018-03-11T17:40:28.323Z,14.19
2018-03-11T17:41:28.258Z,14.13
2018-03-11T17:43:20.040Z,14.19
2018-03-11T17:44:19.956Z,14.21
2018-03-11T17:46:11.729Z,14.26
2018-03-11T17:47:11.657Z,14.27
2018-03-11T17:49:03.402Z,14.27
2018-03-11T17:50:03.344Z,14.29
2018-03-11T17:51:55.109Z,14.35
2018-03-11T17:52:55.038Z,14.42
2018-03-11T17:54:46.797Z,14.45
2018-03-11T17:55:46.789Z,14.36
2018-03-11T17:57:38.511Z,14.38
2018-03-11T17:58:38.434Z,14.36
2018-03-11T18:00:30.197Z,14.34
2018-03-11T18:01:30.179Z,14.21
2018-03-11T18:03:21.913Z,14.24
2018-03-11T18:04:21.834Z,14.27
2018-03-11T18:06:13.655Z,14.19
2018-03-11T18:07:13.531Z,14.20
2018-03-11T18:09:05.303Z,14.19
2018-03-11T18:10:05.226Z,14.13
2018-03-11T18:11:57.020Z,14.09
2018-03-11T18:12:56.922Z,14.04
2018-03-11T18:14:48.807Z,13.93
2018-03-11T18:15:48.755Z,13.84
2018-03-11T18:17:40.500Z,13.90
2018-03-11T18:18:40.429Z,13.86
2018-03-11T18:20:32.200Z,13.81
2018-03-11T18:21:32.143Z,13.71
2018-03-11T18:23:23.988Z,13.62
2018-03-11T18:24:23.913Z,13.59
2018-03-11T18:26:15.684Z,13.50
2018-03-11T18:27:15.602Z,13.39
2018-03-11T18:29:07.377Z,13.36
2018-03-11T18:30:07.300Z,13.39
2018-03-11T18:31:59.105Z,13.29
2018-03-11T18:32:59.040Z,13.28
2018-03-11T18:34:50.804Z,13.14
2018-03-11T18:35:50.742Z,13.06
2018-03-11T18:37:42.513Z,13.03
2018-03-11T18:38:42.440Z,12.94
2018-03-11T18:40:34.221Z,12.88
2018-03-11T18:41:34.161Z,12.87